Albin, Wyoming
Current Conditions -  °F | °C
As of 11:55 AM on Sunday 23 Nov 2014 (Local Time) from K82V Reporting Station
Scattered Clouds Scattered Clouds  
Wind Chill: -4°   Ceiling: Unl
Heat Index:   Visibility: 10mi
Dew Point: -11°   Wind: 26mph
Humidity: 36%   Direction: 340°NNW
Pressure: 29.78"   Gusts: 40mph
Location:  41.42°N, 104.1°W
Report Text: K82V 231855Z AUTO 34023G35KT 10SM SCT055 03/M11 A2978 RMK AO2
Loading
Personal Weather Stations






























Interactive Weather Map New forecast layout! Learn more

10-Day Weather Forecast

Advertisements
Track Severe Weather on mobile